sensor_id;sensor_type;location;lat;lon;timestamp;P1;durP1;ratioP1;P2;durP2;ratioP2
68886;SDS011;55925;51.764;6.402;2023-11-19T00:02:14;18.27;;;9.00;;
68886;SDS011;55925;51.764;6.402;2023-11-19T00:04:40;18.67;;;9.25;;
68886;SDS011;55925;51.764;6.402;2023-11-19T00:07:06;18.95;;;9.18;;
68886;SDS011;55925;51.764;6.402;2023-11-19T00:09:36;17.45;;;9.02;;
68886;SDS011;55925;51.764;6.402;2023-11-19T00:12:03;19.20;;;9.55;;
68886;SDS011;55925;51.764;6.402;2023-11-19T00:14:29;18.75;;;9.45;;
68886;SDS011;55925;51.764;6.402;2023-11-19T00:16:55;18.25;;;9.25;;
68886;SDS011;55925;51.764;6.402;2023-11-19T00:19:22;17.77;;;9.32;;
68886;SDS011;55925;51.764;6.402;2023-11-19T00:21:48;18.90;;;9.68;;
68886;SDS011;55925;51.764;6.402;2023-11-19T00:24:14;21.65;;;9.73;;
68886;SDS011;55925;51.764;6.402;2023-11-19T00:26:41;18.48;;;9.50;;
68886;SDS011;55925;51.764;6.402;2023-11-19T00:29:07;18.75;;;9.13;;
68886;SDS011;55925;51.764;6.402;2023-11-19T00:31:34;19.30;;;9.95;;
68886;SDS011;55925;51.764;6.402;2023-11-19T00:34:00;20.23;;;9.45;;
68886;SDS011;55925;51.764;6.402;2023-11-19T00:36:27;18.83;;;8.80;;
68886;SDS011;55925;51.764;6.402;2023-11-19T00:38:53;18.60;;;9.63;;
68886;SDS011;55925;51.764;6.402;2023-11-19T00:41:19;17.30;;;8.57;;
68886;SDS011;55925;51.764;6.402;2023-11-19T00:43:45;16.38;;;8.63;;
68886;SDS011;55925;51.764;6.402;2023-11-19T00:46:11;15.93;;;7.82;;
68886;SDS011;55925;51.764;6.402;2023-11-19T00:48:38;19.27;;;8.63;;
68886;SDS011;55925;51.764;6.402;2023-11-19T00:51:04;19.77;;;8.70;;
68886;SDS011;55925;51.764;6.402;2023-11-19T00:53:31;16.10;;;8.18;;
68886;SDS011;55925;51.764;6.402;2023-11-19T00:55:57;17.10;;;8.93;;
68886;SDS011;55925;51.764;6.402;2023-11-19T00:58:23;17.35;;;7.93;;
68886;SDS011;55925;51.764;6.402;2023-11-19T01:00:49;18.35;;;8.07;;
68886;SDS011;55925;51.764;6.402;2023-11-19T01:03:15;16.55;;;7.20;;
68886;SDS011;55925;51.764;6.402;2023-11-19T01:05:41;14.90;;;8.23;;
68886;SDS011;55925;51.764;6.402;2023-11-19T01:08:08;12.15;;;6.88;;
68886;SDS011;55925;51.764;6.402;2023-11-19T01:10:36;14.73;;;7.10;;
68886;SDS011;55925;51.764;6.402;2023-11-19T01:13:02;15.23;;;7.63;;
68886;SDS011;55925;51.764;6.402;2023-11-19T01:15:31;15.23;;;6.60;;
68886;SDS011;55925;51.764;6.402;2023-11-19T01:17:57;12.52;;;6.25;;
68886;SDS011;55925;51.764;6.402;2023-11-19T01:20:23;15.95;;;7.30;;
68886;SDS011;55925;51.764;6.402;2023-11-19T01:22:49;12.27;;;6.97;;
68886;SDS011;55925;51.764;6.402;2023-11-19T01:25:15;13.65;;;6.25;;
68886;SDS011;55925;51.764;6.402;2023-11-19T01:27:41;16.42;;;6.53;;
68886;SDS011;55925;51.764;6.402;2023-11-19T01:30:07;15.60;;;6.90;;
68886;SDS011;55925;51.764;6.402;2023-11-19T01:32:39;16.38;;;6.28;;
68886;SDS011;55925;51.764;6.402;2023-11-19T01:35:05;13.95;;;7.05;;
68886;SDS011;55925;51.764;6.402;2023-11-19T01:37:33;15.23;;;6.60;;
68886;SDS011;55925;51.764;6.402;2023-11-19T01:40:00;12.95;;;6.40;;
68886;SDS011;55925;51.764;6.402;2023-11-19T01:42:28;13.88;;;6.28;;
68886;SDS011;55925;51.764;6.402;2023-11-19T01:45:00;13.82;;;6.47;;
68886;SDS011;55925;51.764;6.402;2023-11-19T01:47:26;28.55;;;7.43;;
68886;SDS011;55925;51.764;6.402;2023-11-19T01:49:53;13.77;;;6.10;;
68886;SDS011;55925;51.764;6.402;2023-11-19T01:52:19;13.25;;;5.95;;
68886;SDS011;55925;51.764;6.402;2023-11-19T01:54:45;11.75;;;6.10;;
68886;SDS011;55925;51.764;6.402;2023-11-19T01:57:12;12.00;;;5.93;;
68886;SDS011;55925;51.764;6.402;2023-11-19T01:59:39;13.65;;;6.30;;
68886;SDS011;55925;51.764;6.402;2023-11-19T02:02:06;13.57;;;5.57;;
68886;SDS011;55925;51.764;6.402;2023-11-19T02:04:33;10.65;;;5.40;;
68886;SDS011;55925;51.764;6.402;2023-11-19T02:07:00;11.13;;;5.25;;
68886;SDS011;55925;51.764;6.402;2023-11-19T02:09:26;11.43;;;5.22;;
68886;SDS011;55925;51.764;6.402;2023-11-19T02:11:52;14.55;;;4.20;;
68886;SDS011;55925;51.764;6.402;2023-11-19T02:14:19;12.88;;;4.88;;
68886;SDS011;55925;51.764;6.402;2023-11-19T02:16:48;14.15;;;4.63;;
68886;SDS011;55925;51.764;6.402;2023-11-19T02:19:14;9.95;;;3.92;;
68886;SDS011;55925;51.764;6.402;2023-11-19T02:21:40;12.05;;;3.78;;
68886;SDS011;55925;51.764;6.402;2023-11-19T02:24:07;9.38;;;4.05;;
68886;SDS011;55925;51.764;6.402;2023-11-19T02:26:37;11.95;;;3.92;;
68886;SDS011;55925;51.764;6.402;2023-11-19T02:29:05;15.75;;;4.72;;
68886;SDS011;55925;51.764;6.402;2023-11-19T02:31:31;11.85;;;4.38;;
68886;SDS011;55925;51.764;6.402;2023-11-19T02:33:59;12.70;;;3.97;;
68886;SDS011;55925;51.764;6.402;2023-11-19T02:36:27;10.63;;;4.50;;
68886;SDS011;55925;51.764;6.402;2023-11-19T02:38:53;12.32;;;4.05;;
68886;SDS011;55925;51.764;6.402;2023-11-19T02:41:20;14.10;;;4.10;;
68886;SDS011;55925;51.764;6.402;2023-11-19T02:43:46;12.98;;;4.38;;
68886;SDS011;55925;51.764;6.402;2023-11-19T02:46:13;11.50;;;3.53;;
68886;SDS011;55925;51.764;6.402;2023-11-19T02:48:40;16.00;;;4.63;;
68886;SDS011;55925;51.764;6.402;2023-11-19T02:51:06;15.57;;;4.78;;
68886;SDS011;55925;51.764;6.402;2023-11-19T02:53:35;9.25;;;3.47;;
68886;SDS011;55925;51.764;6.402;2023-11-19T02:56:05;18.38;;;4.53;;
68886;SDS011;55925;51.764;6.402;2023-11-19T02:58:34;13.15;;;4.97;;
68886;SDS011;55925;51.764;6.402;2023-11-19T03:01:00;11.98;;;3.97;;
68886;SDS011;55925;51.764;6.402;2023-11-19T03:03:35;10.57;;;3.70;;
68886;SDS011;55925;51.764;6.402;2023-11-19T03:06:05;9.07;;;3.88;;
68886;SDS011;55925;51.764;6.402;2023-11-19T03:08:32;10.63;;;3.90;;
68886;SDS011;55925;51.764;6.402;2023-11-19T03:10:58;13.95;;;4.97;;
68886;SDS011;55925;51.764;6.402;2023-11-19T03:13:24;13.00;;;4.07;;
68886;SDS011;55925;51.764;6.402;2023-11-19T03:15:50;14.95;;;3.28;;
68886;SDS011;55925;51.764;6.402;2023-11-19T03:18:16;10.52;;;3.25;;
68886;SDS011;55925;51.764;6.402;2023-11-19T03:20:42;19.55;;;4.18;;
68886;SDS011;55925;51.764;6.402;2023-11-19T03:23:08;18.60;;;3.58;;
68886;SDS011;55925;51.764;6.402;2023-11-19T03:25:35;11.07;;;3.60;;
68886;SDS011;55925;51.764;6.402;2023-11-19T03:28:02;9.95;;;3.65;;
68886;SDS011;55925;51.764;6.402;2023-11-19T03:30:28;11.75;;;3.53;;
68886;SDS011;55925;51.764;6.402;2023-11-19T03:32:58;11.20;;;3.83;;
68886;SDS011;55925;51.764;6.402;2023-11-19T03:35:26;13.45;;;4.13;;
68886;SDS011;55925;51.764;6.402;2023-11-19T03:37:53;15.23;;;4.25;;
68886;SDS011;55925;51.764;6.402;2023-11-19T03:40:19;10.88;;;3.35;;
68886;SDS011;55925;51.764;6.402;2023-11-19T03:42:45;18.08;;;5.28;;
68886;SDS011;55925;51.764;6.402;2023-11-19T03:45:11;15.98;;;4.53;;
68886;SDS011;55925;51.764;6.402;2023-11-19T03:47:38;15.05;;;4.80;;
68886;SDS011;55925;51.764;6.402;2023-11-19T03:50:04;15.90;;;4.57;;
68886;SDS011;55925;51.764;6.402;2023-11-19T03:52:31;16.70;;;4.35;;
68886;SDS011;55925;51.764;6.402;2023-11-19T03:54:57;17.48;;;4.57;;
68886;SDS011;55925;51.764;6.402;2023-11-19T03:57:23;13.18;;;4.20;;
68886;SDS011;55925;51.764;6.402;2023-11-19T03:59:49;19.00;;;4.53;;
68886;SDS011;55925;51.764;6.402;2023-11-19T04:02:16;13.48;;;4.32;;
68886;SDS011;55925;51.764;6.402;2023-11-19T04:04:42;17.92;;;5.78;;
68886;SDS011;55925;51.764;6.402;2023-11-19T04:07:08;13.20;;;4.00;;
68886;SDS011;55925;51.764;6.402;2023-11-19T04:09:34;15.85;;;4.07;;
68886;SDS011;55925;51.764;6.402;2023-11-19T04:12:02;21.08;;;5.00;;
68886;SDS011;55925;51.764;6.402;2023-11-19T04:14:28;18.77;;;4.53;;
68886;SDS011;55925;51.764;6.402;2023-11-19T04:16:54;19.85;;;4.50;;
68886;SDS011;55925;51.764;6.402;2023-11-19T04:19:21;20.45;;;4.72;;
68886;SDS011;55925;51.764;6.402;2023-11-19T04:21:47;16.17;;;3.90;;
68886;SDS011;55925;51.764;6.402;2023-11-19T04:24:13;14.77;;;5.68;;
68886;SDS011;55925;51.764;6.402;2023-11-19T04:26:43;26.20;;;5.28;;
68886;SDS011;55925;51.764;6.402;2023-11-19T04:29:13;13.75;;;3.63;;
68886;SDS011;55925;51.764;6.402;2023-11-19T04:31:42;16.30;;;4.13;;
68886;SDS011;55925;51.764;6.402;2023-11-19T04:34:11;16.55;;;4.10;;
68886;SDS011;55925;51.764;6.402;2023-11-19T04:36:37;21.83;;;3.97;;
68886;SDS011;55925;51.764;6.402;2023-11-19T04:39:04;12.55;;;3.15;;
68886;SDS011;55925;51.764;6.402;2023-11-19T04:41:35;14.00;;;3.42;;
68886;SDS011;55925;51.764;6.402;2023-11-19T04:44:01;19.42;;;4.03;;
68886;SDS011;55925;51.764;6.402;2023-11-19T04:46:27;15.00;;;4.05;;
68886;SDS011;55925;51.764;6.402;2023-11-19T04:48:53;16.50;;;4.00;;
68886;SDS011;55925;51.764;6.402;2023-11-19T04:51:19;16.80;;;4.15;;
68886;SDS011;55925;51.764;6.402;2023-11-19T04:53:45;13.55;;;2.95;;
68886;SDS011;55925;51.764;6.402;2023-11-19T04:56:11;20.30;;;3.75;;
68886;SDS011;55925;51.764;6.402;2023-11-19T04:58:38;15.27;;;4.38;;
68886;SDS011;55925;51.764;6.402;2023-11-19T05:01:04;21.92;;;3.92;;
68886;SDS011;55925;51.764;6.402;2023-11-19T05:03:30;19.63;;;3.63;;
68886;SDS011;55925;51.764;6.402;2023-11-19T05:05:57;17.63;;;4.10;;
68886;SDS011;55925;51.764;6.402;2023-11-19T05:08:23;13.85;;;3.20;;
68886;SDS011;55925;51.764;6.402;2023-11-19T05:10:49;17.95;;;4.45;;
68886;SDS011;55925;51.764;6.402;2023-11-19T05:13:15;14.00;;;4.05;;
68886;SDS011;55925;51.764;6.402;2023-11-19T05:15:41;20.30;;;4.25;;
68886;SDS011;55925;51.764;6.402;2023-11-19T05:18:08;18.63;;;3.75;;
68886;SDS011;55925;51.764;6.402;2023-11-19T05:20:34;22.17;;;4.15;;
68886;SDS011;55925;51.764;6.402;2023-11-19T05:23:00;18.73;;;4.18;;
68886;SDS011;55925;51.764;6.402;2023-11-19T05:25:26;21.45;;;4.18;;
68886;SDS011;55925;51.764;6.402;2023-11-19T05:27:53;17.48;;;4.05;;
68886;SDS011;55925;51.764;6.402;2023-11-19T05:30:19;15.77;;;3.53;;
68886;SDS011;55925;51.764;6.402;2023-11-19T05:32:45;14.75;;;2.83;;
68886;SDS011;55925;51.764;6.402;2023-11-19T05:35:11;16.17;;;3.72;;
68886;SDS011;55925;51.764;6.402;2023-11-19T05:37:37;22.27;;;4.22;;
68886;SDS011;55925;51.764;6.402;2023-11-19T05:40:03;18.88;;;4.43;;
68886;SDS011;55925;51.764;6.402;2023-11-19T05:42:33;24.13;;;3.70;;
68886;SDS011;55925;51.764;6.402;2023-11-19T05:45:00;20.02;;;3.90;;
68886;SDS011;55925;51.764;6.402;2023-11-19T05:47:26;17.45;;;4.13;;
68886;SDS011;55925;51.764;6.402;2023-11-19T05:49:52;22.27;;;4.40;;
68886;SDS011;55925;51.764;6.402;2023-11-19T05:52:18;15.70;;;5.03;;
68886;SDS011;55925;51.764;6.402;2023-11-19T05:54:46;20.55;;;4.25;;
68886;SDS011;55925;51.764;6.402;2023-11-19T05:57:16;20.60;;;3.53;;
68886;SDS011;55925;51.764;6.402;2023-11-19T05:59:48;16.60;;;4.03;;
68886;SDS011;55925;51.764;6.402;2023-11-19T06:02:14;18.15;;;4.20;;
68886;SDS011;55925;51.764;6.402;2023-11-19T06:04:41;18.73;;;4.43;;
68886;SDS011;55925;51.764;6.402;2023-11-19T06:07:09;23.65;;;4.03;;
68886;SDS011;55925;51.764;6.402;2023-11-19T06:09:35;24.33;;;5.22;;
68886;SDS011;55925;51.764;6.402;2023-11-19T06:12:01;22.05;;;4.53;;
68886;SDS011;55925;51.764;6.402;2023-11-19T06:14:27;20.67;;;4.28;;
68886;SDS011;55925;51.764;6.402;2023-11-19T06:16:53;19.38;;;4.43;;
68886;SDS011;55925;51.764;6.402;2023-11-19T06:19:19;18.63;;;4.30;;
68886;SDS011;55925;51.764;6.402;2023-11-19T06:21:45;20.13;;;4.63;;
68886;SDS011;55925;51.764;6.402;2023-11-19T06:24:11;17.88;;;4.50;;
68886;SDS011;55925;51.764;6.402;2023-11-19T06:26:37;19.05;;;4.93;;
68886;SDS011;55925;51.764;6.402;2023-11-19T06:29:04;20.20;;;4.75;;
68886;SDS011;55925;51.764;6.402;2023-11-19T06:31:30;17.65;;;4.15;;
68886;SDS011;55925;51.764;6.402;2023-11-19T06:33:56;19.92;;;4.60;;
68886;SDS011;55925;51.764;6.402;2023-11-19T06:36:22;15.82;;;3.80;;
68886;SDS011;55925;51.764;6.402;2023-11-19T06:38:48;17.88;;;4.18;;
68886;SDS011;55925;51.764;6.402;2023-11-19T06:41:14;20.48;;;4.35;;
68886;SDS011;55925;51.764;6.402;2023-11-19T06:43:40;27.88;;;3.75;;
68886;SDS011;55925;51.764;6.402;2023-11-19T06:46:14;24.38;;;4.32;;
68886;SDS011;55925;51.764;6.402;2023-11-19T06:48:40;17.95;;;3.85;;
68886;SDS011;55925;51.764;6.402;2023-11-19T06:51:08;19.17;;;3.63;;
68886;SDS011;55925;51.764;6.402;2023-11-19T06:53:34;20.98;;;3.72;;
68886;SDS011;55925;51.764;6.402;2023-11-19T06:56:01;14.55;;;3.33;;
68886;SDS011;55925;51.764;6.402;2023-11-19T06:58:31;13.98;;;4.20;;
68886;SDS011;55925;51.764;6.402;2023-11-19T07:00:57;12.55;;;3.65;;
68886;SDS011;55925;51.764;6.402;2023-11-19T07:03:23;18.20;;;4.05;;
68886;SDS011;55925;51.764;6.402;2023-11-19T07:05:49;15.20;;;3.10;;
68886;SDS011;55925;51.764;6.402;2023-11-19T07:08:15;26.80;;;4.93;;
68886;SDS011;55925;51.764;6.402;2023-11-19T07:10:41;24.15;;;5.38;;
68886;SDS011;55925;51.764;6.402;2023-11-19T07:13:07;23.65;;;4.75;;
68886;SDS011;55925;51.764;6.402;2023-11-19T07:15:34;22.20;;;3.90;;
68886;SDS011;55925;51.764;6.402;2023-11-19T07:18:00;20.70;;;4.72;;
68886;SDS011;55925;51.764;6.402;2023-11-19T07:20:26;18.02;;;3.83;;
68886;SDS011;55925;51.764;6.402;2023-11-19T07:22:52;21.70;;;4.43;;
68886;SDS011;55925;51.764;6.402;2023-11-19T07:25:20;24.88;;;3.88;;
68886;SDS011;55925;51.764;6.402;2023-11-19T07:27:46;26.95;;;4.55;;
68886;SDS011;55925;51.764;6.402;2023-11-19T07:30:13;15.32;;;5.20;;
68886;SDS011;55925;51.764;6.402;2023-11-19T07:32:39;24.55;;;4.30;;
68886;SDS011;55925;51.764;6.402;2023-11-19T07:35:05;22.42;;;4.55;;
68886;SDS011;55925;51.764;6.402;2023-11-19T07:37:31;22.80;;;4.43;;
68886;SDS011;55925;51.764;6.402;2023-11-19T07:39:57;23.95;;;3.72;;
68886;SDS011;55925;51.764;6.402;2023-11-19T07:42:23;19.40;;;4.35;;
68886;SDS011;55925;51.764;6.402;2023-11-19T07:44:50;13.02;;;3.22;;
68886;SDS011;55925;51.764;6.402;2023-11-19T07:47:16;22.38;;;4.85;;
68886;SDS011;55925;51.764;6.402;2023-11-19T07:49:42;21.02;;;3.67;;
68886;SDS011;55925;51.764;6.402;2023-11-19T07:52:09;20.42;;;4.47;;
68886;SDS011;55925;51.764;6.402;2023-11-19T07:54:35;21.20;;;4.38;;
68886;SDS011;55925;51.764;6.402;2023-11-19T07:57:01;18.52;;;3.33;;
68886;SDS011;55925;51.764;6.402;2023-11-19T07:59:27;30.15;;;4.43;;
68886;SDS011;55925;51.764;6.402;2023-11-19T08:01:53;29.90;;;4.50;;
68886;SDS011;55925;51.764;6.402;2023-11-19T08:04:19;15.40;;;3.50;;
68886;SDS011;55925;51.764;6.402;2023-11-19T08:06:45;19.23;;;3.40;;
68886;SDS011;55925;51.764;6.402;2023-11-19T08:09:11;16.13;;;3.63;;
68886;SDS011;55925;51.764;6.402;2023-11-19T08:11:42;25.27;;;3.92;;
68886;SDS011;55925;51.764;6.402;2023-11-19T08:14:09;29.70;;;5.07;;
68886;SDS011;55925;51.764;6.402;2023-11-19T08:16:35;19.00;;;3.90;;
68886;SDS011;55925;51.764;6.402;2023-11-19T08:19:02;25.17;;;5.30;;
68886;SDS011;55925;51.764;6.402;2023-11-19T08:21:28;15.20;;;3.75;;
68886;SDS011;55925;51.764;6.402;2023-11-19T08:23:54;22.25;;;4.97;;
68886;SDS011;55925;51.764;6.402;2023-11-19T08:26:20;18.73;;;3.45;;
68886;SDS011;55925;51.764;6.402;2023-11-19T08:28:46;16.17;;;4.80;;
68886;SDS011;55925;51.764;6.402;2023-11-19T08:31:12;19.00;;;5.03;;
68886;SDS011;55925;51.764;6.402;2023-11-19T08:33:38;18.25;;;3.35;;
68886;SDS011;55925;51.764;6.402;2023-11-19T08:36:04;23.90;;;4.28;;
68886;SDS011;55925;51.764;6.402;2023-11-19T08:38:31;20.65;;;4.07;;
68886;SDS011;55925;51.764;6.402;2023-11-19T08:40:57;20.40;;;3.28;;
68886;SDS011;55925;51.764;6.402;2023-11-19T08:43:25;21.95;;;4.05;;
68886;SDS011;55925;51.764;6.402;2023-11-19T08:45:51;16.67;;;2.78;;
68886;SDS011;55925;51.764;6.402;2023-11-19T08:48:17;28.13;;;4.38;;
68886;SDS011;55925;51.764;6.402;2023-11-19T08:50:43;19.38;;;4.13;;
68886;SDS011;55925;51.764;6.402;2023-11-19T08:53:09;23.27;;;3.80;;
68886;SDS011;55925;51.764;6.402;2023-11-19T08:55:36;24.02;;;5.10;;
68886;SDS011;55925;51.764;6.402;2023-11-19T08:58:03;20.13;;;3.55;;
68886;SDS011;55925;51.764;6.402;2023-11-19T09:00:29;24.08;;;3.90;;
68886;SDS011;55925;51.764;6.402;2023-11-19T09:02:57;24.35;;;3.80;;
68886;SDS011;55925;51.764;6.402;2023-11-19T09:05:24;21.48;;;4.90;;
68886;SDS011;55925;51.764;6.402;2023-11-19T09:07:50;17.92;;;4.55;;
68886;SDS011;55925;51.764;6.402;2023-11-19T09:10:16;21.30;;;3.75;;
68886;SDS011;55925;51.764;6.402;2023-11-19T09:12:42;17.08;;;3.83;;
68886;SDS011;55925;51.764;6.402;2023-11-19T09:15:08;20.85;;;4.05;;
68886;SDS011;55925;51.764;6.402;2023-11-19T09:17:35;21.90;;;3.78;;
68886;SDS011;55925;51.764;6.402;2023-11-19T09:20:01;32.92;;;4.75;;
68886;SDS011;55925;51.764;6.402;2023-11-19T09:22:27;18.20;;;5.32;;
68886;SDS011;55925;51.764;6.402;2023-11-19T09:24:53;21.05;;;4.63;;
68886;SDS011;55925;51.764;6.402;2023-11-19T09:27:19;20.73;;;3.80;;
68886;SDS011;55925;51.764;6.402;2023-11-19T09:29:45;16.95;;;3.42;;
68886;SDS011;55925;51.764;6.402;2023-11-19T09:32:13;20.60;;;3.60;;
68886;SDS011;55925;51.764;6.402;2023-11-19T09:34:39;19.02;;;3.88;;
68886;SDS011;55925;51.764;6.402;2023-11-19T09:37:05;19.95;;;4.05;;
68886;SDS011;55925;51.764;6.402;2023-11-19T09:39:32;18.15;;;4.72;;
68886;SDS011;55925;51.764;6.402;2023-11-19T09:41:58;18.85;;;3.33;;
68886;SDS011;55925;51.764;6.402;2023-11-19T09:44:25;22.98;;;4.82;;
68886;SDS011;55925;51.764;6.402;2023-11-19T09:46:51;20.83;;;5.43;;
68886;SDS011;55925;51.764;6.402;2023-11-19T09:49:18;21.92;;;3.83;;
68886;SDS011;55925;51.764;6.402;2023-11-19T09:51:50;17.23;;;4.07;;
68886;SDS011;55925;51.764;6.402;2023-11-19T09:54:16;22.05;;;4.60;;
68886;SDS011;55925;51.764;6.402;2023-11-19T09:56:42;18.98;;;5.13;;
68886;SDS011;55925;51.764;6.402;2023-11-19T09:59:08;14.38;;;4.47;;
68886;SDS011;55925;51.764;6.402;2023-11-19T10:01:38;15.98;;;4.75;;
68886;SDS011;55925;51.764;6.402;2023-11-19T10:04:04;17.17;;;3.75;;
68886;SDS011;55925;51.764;6.402;2023-11-19T10:06:31;22.65;;;4.50;;
68886;SDS011;55925;51.764;6.402;2023-11-19T10:08:57;17.20;;;4.00;;
68886;SDS011;55925;51.764;6.402;2023-11-19T10:11:24;19.88;;;3.85;;
68886;SDS011;55925;51.764;6.402;2023-11-19T10:13:51;25.33;;;4.85;;
68886;SDS011;55925;51.764;6.402;2023-11-19T10:16:17;17.75;;;4.13;;
68886;SDS011;55925;51.764;6.402;2023-11-19T10:18:47;20.35;;;3.78;;
68886;SDS011;55925;51.764;6.402;2023-11-19T10:21:14;23.15;;;4.15;;
68886;SDS011;55925;51.764;6.402;2023-11-19T10:26:15;25.88;;;4.72;;
68886;SDS011;55925;51.764;6.402;2023-11-19T10:28:41;22.85;;;5.13;;
68886;SDS011;55925;51.764;6.402;2023-11-19T10:31:12;13.27;;;3.67;;
68886;SDS011;55925;51.764;6.402;2023-11-19T10:33:38;17.27;;;3.92;;
68886;SDS011;55925;51.764;6.402;2023-11-19T10:36:04;21.50;;;4.75;;
68886;SDS011;55925;51.764;6.402;2023-11-19T10:38:30;25.25;;;3.97;;
68886;SDS011;55925;51.764;6.402;2023-11-19T10:40:56;18.30;;;4.07;;
68886;SDS011;55925;51.764;6.402;2023-11-19T10:43:22;17.25;;;4.35;;
68886;SDS011;55925;51.764;6.402;2023-11-19T10:45:49;17.20;;;3.35;;
68886;SDS011;55925;51.764;6.402;2023-11-19T10:48:16;26.38;;;3.97;;
68886;SDS011;55925;51.764;6.402;2023-11-19T10:50:43;18.83;;;4.07;;
68886;SDS011;55925;51.764;6.402;2023-11-19T10:53:09;19.10;;;3.70;;
68886;SDS011;55925;51.764;6.402;2023-11-19T10:55:38;12.07;;;3.25;;
68886;SDS011;55925;51.764;6.402;2023-11-19T10:58:08;21.08;;;4.78;;
68886;SDS011;55925;51.764;6.402;2023-11-19T11:03:01;21.70;;;4.28;;
68886;SDS011;55925;51.764;6.402;2023-11-19T11:05:29;23.42;;;4.10;;
68886;SDS011;55925;51.764;6.402;2023-11-19T11:07:57;20.85;;;4.28;;
68886;SDS011;55925;51.764;6.402;2023-11-19T11:10:25;23.42;;;4.47;;
68886;SDS011;55925;51.764;6.402;2023-11-19T11:12:52;24.10;;;6.95;;
68886;SDS011;55925;51.764;6.402;2023-11-19T11:17:49;18.23;;;3.63;;
68886;SDS011;55925;51.764;6.402;2023-11-19T11:20:15;17.40;;;3.20;;
68886;SDS011;55925;51.764;6.402;2023-11-19T11:22:49;15.15;;;3.83;;
68886;SDS011;55925;51.764;6.402;2023-11-19T11:25:24;16.30;;;3.33;;
68886;SDS011;55925;51.764;6.402;2023-11-19T11:27:57;17.83;;;4.60;;
68886;SDS011;55925;51.764;6.402;2023-11-19T11:38:13;22.05;;;4.20;;
68886;SDS011;55925;51.764;6.402;2023-11-19T11:40:40;17.98;;;4.43;;
68886;SDS011;55925;51.764;6.402;2023-11-19T11:43:43;14.13;;;3.97;;
68886;SDS011;55925;51.764;6.402;2023-11-19T11:46:05;23.45;;;4.90;;
68886;SDS011;55925;51.764;6.402;2023-11-19T11:48:33;14.32;;;3.50;;
68886;SDS011;55925;51.764;6.402;2023-11-19T11:50:59;21.48;;;4.18;;
68886;SDS011;55925;51.764;6.402;2023-11-19T11:53:25;15.80;;;3.67;;
68886;SDS011;55925;51.764;6.402;2023-11-19T11:55:52;18.23;;;3.30;;
68886;SDS011;55925;51.764;6.402;2023-11-19T11:58:20;17.60;;;4.15;;
68886;SDS011;55925;51.764;6.402;2023-11-19T12:00:46;16.30;;;3.80;;
68886;SDS011;55925;51.764;6.402;2023-11-19T12:03:13;16.23;;;2.80;;
68886;SDS011;55925;51.764;6.402;2023-11-19T12:05:43;21.40;;;4.38;;
68886;SDS011;55925;51.764;6.402;2023-11-19T12:08:10;16.27;;;3.70;;
68886;SDS011;55925;51.764;6.402;2023-11-19T12:10:46;20.58;;;3.55;;
68886;SDS011;55925;51.764;6.402;2023-11-19T12:13:16;20.13;;;4.05;;
68886;SDS011;55925;51.764;6.402;2023-11-19T12:16:07;18.73;;;4.70;;
68886;SDS011;55925;51.764;6.402;2023-11-19T12:18:33;16.17;;;3.83;;
68886;SDS011;55925;51.764;6.402;2023-11-19T12:21:00;18.15;;;3.35;;
68886;SDS011;55925;51.764;6.402;2023-11-19T12:23:28;18.25;;;4.22;;
68886;SDS011;55925;51.764;6.402;2023-11-19T12:25:55;11.30;;;2.53;;
68886;SDS011;55925;51.764;6.402;2023-11-19T12:28:21;15.75;;;3.17;;
68886;SDS011;55925;51.764;6.402;2023-11-19T12:30:49;15.25;;;3.20;;
68886;SDS011;55925;51.764;6.402;2023-11-19T12:33:16;15.38;;;3.03;;
68886;SDS011;55925;51.764;6.402;2023-11-19T12:35:43;11.45;;;2.80;;
68886;SDS011;55925;51.764;6.402;2023-11-19T12:40:46;11.82;;;3.42;;
68886;SDS011;55925;51.764;6.402;2023-11-19T12:43:20;10.88;;;2.50;;
68886;SDS011;55925;51.764;6.402;2023-11-19T12:45:47;16.60;;;3.70;;
68886;SDS011;55925;51.764;6.402;2023-11-19T12:48:13;11.50;;;2.60;;
68886;SDS011;55925;51.764;6.402;2023-11-19T12:50:58;11.32;;;2.67;;
68886;SDS011;55925;51.764;6.402;2023-11-19T12:53:25;11.00;;;3.30;;
68886;SDS011;55925;51.764;6.402;2023-11-19T12:55:52;12.50;;;3.55;;
68886;SDS011;55925;51.764;6.402;2023-11-19T13:01:02;12.85;;;3.03;;
68886;SDS011;55925;51.764;6.402;2023-11-19T13:03:29;13.93;;;3.70;;
68886;SDS011;55925;51.764;6.402;2023-11-19T13:06:01;15.57;;;2.97;;
68886;SDS011;55925;51.764;6.402;2023-11-19T13:08:28;12.70;;;2.67;;
68886;SDS011;55925;51.764;6.402;2023-11-19T13:10:54;12.30;;;3.45;;
68886;SDS011;55925;51.764;6.402;2023-11-19T13:13:20;12.52;;;3.15;;
68886;SDS011;55925;51.764;6.402;2023-11-19T13:15:46;13.00;;;2.85;;
68886;SDS011;55925;51.764;6.402;2023-11-19T13:18:12;13.30;;;3.58;;
68886;SDS011;55925;51.764;6.402;2023-11-19T13:20:41;19.27;;;2.63;;
68886;SDS011;55925;51.764;6.402;2023-11-19T13:23:07;12.80;;;3.70;;
68886;SDS011;55925;51.764;6.402;2023-11-19T13:25:33;13.30;;;2.95;;
68886;SDS011;55925;51.764;6.402;2023-11-19T13:28:00;15.05;;;3.33;;
68886;SDS011;55925;51.764;6.402;2023-11-19T13:30:26;16.45;;;3.83;;
68886;SDS011;55925;51.764;6.402;2023-11-19T13:32:54;13.48;;;3.72;;
68886;SDS011;55925;51.764;6.402;2023-11-19T13:35:20;13.07;;;3.75;;
68886;SDS011;55925;51.764;6.402;2023-11-19T13:37:47;11.90;;;3.10;;
68886;SDS011;55925;51.764;6.402;2023-11-19T13:40:13;10.65;;;2.50;;
68886;SDS011;55925;51.764;6.402;2023-11-19T13:42:43;10.68;;;4.25;;
68886;SDS011;55925;51.764;6.402;2023-11-19T13:45:10;14.32;;;3.38;;
68886;SDS011;55925;51.764;6.402;2023-11-19T13:47:37;16.20;;;3.33;;
68886;SDS011;55925;51.764;6.402;2023-11-19T13:50:06;14.80;;;2.90;;
68886;SDS011;55925;51.764;6.402;2023-11-19T13:52:32;13.15;;;2.67;;
68886;SDS011;55925;51.764;6.402;2023-11-19T13:54:58;13.02;;;3.10;;
68886;SDS011;55925;51.764;6.402;2023-11-19T13:57:24;12.02;;;2.70;;
68886;SDS011;55925;51.764;6.402;2023-11-19T13:59:50;14.82;;;3.45;;
68886;SDS011;55925;51.764;6.402;2023-11-19T14:02:16;18.58;;;4.13;;
68886;SDS011;55925;51.764;6.402;2023-11-19T14:04:42;14.50;;;3.33;;
68886;SDS011;55925;51.764;6.402;2023-11-19T14:07:08;11.18;;;2.60;;
68886;SDS011;55925;51.764;6.402;2023-11-19T14:09:34;13.50;;;3.35;;
68886;SDS011;55925;51.764;6.402;2023-11-19T14:12:00;12.40;;;3.75;;
68886;SDS011;55925;51.764;6.402;2023-11-19T14:14:26;16.88;;;3.05;;
68886;SDS011;55925;51.764;6.402;2023-11-19T14:16:52;16.17;;;2.85;;
68886;SDS011;55925;51.764;6.402;2023-11-19T14:19:18;22.55;;;3.67;;
68886;SDS011;55925;51.764;6.402;2023-11-19T14:21:44;12.00;;;2.92;;
68886;SDS011;55925;51.764;6.402;2023-11-19T14:24:10;20.38;;;3.88;;
68886;SDS011;55925;51.764;6.402;2023-11-19T14:26:36;11.43;;;3.45;;
68886;SDS011;55925;51.764;6.402;2023-11-19T14:29:02;18.17;;;4.18;;
68886;SDS011;55925;51.764;6.402;2023-11-19T14:31:28;15.98;;;3.40;;
68886;SDS011;55925;51.764;6.402;2023-11-19T14:33:54;19.75;;;3.38;;
68886;SDS011;55925;51.764;6.402;2023-11-19T14:36:20;10.45;;;2.72;;
68886;SDS011;55925;51.764;6.402;2023-11-19T14:38:46;14.50;;;3.17;;
68886;SDS011;55925;51.764;6.402;2023-11-19T14:41:12;9.38;;;2.90;;
68886;SDS011;55925;51.764;6.402;2023-11-19T14:43:39;11.95;;;3.20;;
68886;SDS011;55925;51.764;6.402;2023-11-19T14:46:05;16.20;;;2.90;;
68886;SDS011;55925;51.764;6.402;2023-11-19T14:48:31;11.93;;;2.28;;
68886;SDS011;55925;51.764;6.402;2023-11-19T14:50:57;10.23;;;2.85;;
68886;SDS011;55925;51.764;6.402;2023-11-19T14:53:24;12.02;;;2.58;;
68886;SDS011;55925;51.764;6.402;2023-11-19T14:55:50;12.85;;;2.80;;